createdAt,value
2018-01-29T00:01:02.108Z,70.42
2018-01-29T00:03:29.963Z,70.72
2018-01-29T00:05:57.846Z,71.04
2018-01-29T00:08:25.774Z,70.91
2018-01-29T00:10:54.363Z,71.14
2018-01-29T00:13:22.856Z,71.25
2018-01-29T00:15:50.996Z,71.69
2018-01-29T00:18:18.847Z,71.77
2018-01-29T00:20:46.741Z,71.91
2018-01-29T00:23:14.769Z,71.83
2018-01-29T00:25:42.614Z,71.56
2018-01-29T00:28:10.461Z,71.28
2018-01-29T00:30:38.367Z,71.07
2018-01-29T00:33:06.220Z,71.13
2018-01-29T00:35:34.084Z,71.11
2018-01-29T00:38:02.032Z,71.11
2018-01-29T00:40:29.889Z,71.63
2018-01-29T00:42:57.737Z,71.36
2018-01-29T00:45:25.655Z,71.45
2018-01-29T00:47:53.556Z,71.61
2018-01-29T00:50:21.857Z,71.68
2018-01-29T00:52:49.974Z,71.87
2018-01-29T00:55:18.202Z,72.00
2018-01-29T00:57:46.055Z,71.23
2018-01-29T01:00:14.007Z,71.38
2018-01-29T01:02:41.863Z,70.90
2018-01-29T01:05:09.707Z,70.81
2018-01-29T01:07:38.042Z,70.82
2018-01-29T01:10:05.899Z,70.59
2018-01-29T01:12:33.751Z,70.73
2018-01-29T01:15:01.637Z,70.70
2018-01-29T01:17:29.470Z,70.61
2018-01-29T01:19:57.392Z,70.51
2018-01-29T01:22:26.461Z,70.91
2018-01-29T01:24:54.326Z,71.29
2018-01-29T01:27:22.198Z,71.40
2018-01-29T01:29:50.125Z,71.36
2018-01-29T01:32:17.993Z,71.35
2018-01-29T01:34:45.858Z,71.50
2018-01-29T01:37:14.441Z,71.09
2018-01-29T01:39:42.281Z,71.63
2018-01-29T01:42:10.208Z,71.96
2018-01-29T01:44:38.178Z,72.11
2018-01-29T01:47:06.030Z,72.21
2018-01-29T01:49:34.022Z,71.91
2018-01-29T01:52:01.944Z,71.83
2018-01-29T01:54:29.791Z,71.62
2018-01-29T01:56:57.751Z,71.45
2018-01-29T01:59:25.655Z,71.64
2018-01-29T02:01:53.503Z,71.93
2018-01-29T02:04:21.365Z,72.03
2018-01-29T02:06:49.264Z,72.24
2018-01-29T02:09:17.110Z,72.29
2018-01-29T02:11:44.996Z,72.77
2018-01-29T02:14:12.898Z,72.71
2018-01-29T02:16:40.747Z,73.16
2018-01-29T02:19:08.586Z,73.14
2018-01-29T02:21:36.479Z,72.91
2018-01-29T02:24:04.374Z,72.71
2018-01-29T02:26:32.226Z,72.50
2018-01-29T02:29:00.182Z,72.05
2018-01-29T02:31:28.064Z,71.86
2018-01-29T02:33:55.910Z,71.77
2018-01-29T02:36:24.080Z,71.83
2018-01-29T02:38:51.986Z,71.77
2018-01-29T02:41:19.873Z,71.73
2018-01-29T02:43:47.775Z,71.75
2018-01-29T02:46:15.657Z,71.87
2018-01-29T02:48:43.540Z,71.46
2018-01-29T02:51:11.939Z,71.14
2018-01-29T02:53:39.832Z,70.55
2018-01-29T02:56:07.720Z,70.43
2018-01-29T02:58:35.734Z,70.58
2018-01-29T03:01:03.595Z,70.52
2018-01-29T03:03:31.512Z,70.78
2018-01-29T03:05:59.434Z,70.32
2018-01-29T03:08:28.201Z,70.25
2018-01-29T03:10:56.061Z,70.43
2018-01-29T03:13:24.293Z,71.21
2018-01-29T03:15:52.130Z,72.16
2018-01-29T03:18:20.001Z,72.35
2018-01-29T03:20:47.955Z,72.71
2018-01-29T03:23:15.820Z,72.70
2018-01-29T03:25:43.711Z,72.78
2018-01-29T03:28:11.614Z,72.63
2018-01-29T03:30:39.479Z,72.40
2018-01-29T03:33:07.367Z,72.12
2018-01-29T03:35:35.267Z,72.14
2018-01-29T03:38:03.124Z,72.02
2018-01-29T03:40:30.990Z,71.97
2018-01-29T03:42:58.903Z,71.55
2018-01-29T03:45:26.807Z,71.29
2018-01-29T03:47:54.662Z,71.51
2018-01-29T03:50:22.795Z,71.06
2018-01-29T03:52:50.726Z,71.16
2018-01-29T03:55:18.635Z,71.36
2018-01-29T03:57:46.551Z,71.37
2018-01-29T04:00:14.538Z,71.43
2018-01-29T04:02:43.322Z,71.34
2018-01-29T04:05:11.682Z,71.32
2018-01-29T04:07:39.534Z,71.42
2018-01-29T04:10:07.371Z,70.95
2018-01-29T04:12:35.275Z,71.07
2018-01-29T04:15:03.124Z,71.04
2018-01-29T04:17:30.990Z,71.59
2018-01-29T04:19:59.165Z,71.60
2018-01-29T04:22:26.997Z,71.58
2018-01-29T04:24:54.882Z,71.46
2018-01-29T04:27:22.792Z,71.71
2018-01-29T04:29:51.214Z,71.34
2018-01-29T04:32:19.066Z,71.39
2018-01-29T04:34:46.966Z,71.48
2018-01-29T04:37:14.818Z,71.81
2018-01-29T04:39:42.656Z,71.95
2018-01-29T04:42:10.566Z,71.72
2018-01-29T04:44:38.495Z,71.68
2018-01-29T04:47:06.382Z,71.74
2018-01-29T04:49:34.274Z,71.75
2018-01-29T04:52:02.140Z,72.19
2018-01-29T04:54:29.986Z,72.21
2018-01-29T04:56:57.890Z,72.01
2018-01-29T04:59:25.768Z,71.92
2018-01-29T05:01:53.694Z,71.82
2018-01-29T05:04:21.899Z,71.88
2018-01-29T05:06:49.737Z,72.05
2018-01-29T05:09:17.588Z,71.91
2018-01-29T05:11:45.525Z,72.26
2018-01-29T05:14:13.389Z,72.20
2018-01-29T05:16:41.265Z,72.22
2018-01-29T05:19:09.187Z,72.16
2018-01-29T05:21:37.061Z,72.15
2018-01-29T05:24:05.464Z,72.18
2018-01-29T05:26:33.376Z,72.14
2018-01-29T05:29:01.244Z,71.88
2018-01-29T05:31:29.110Z,72.00
2018-01-29T05:33:57.062Z,71.99
2018-01-29T05:36:25.515Z,72.34
2018-01-29T05:38:58.064Z,72.59
2018-01-29T05:41:25.969Z,72.70
2018-01-29T05:43:53.851Z,72.63
2018-01-29T05:46:22.290Z,72.65
2018-01-29T05:48:50.192Z,72.92
2018-01-29T05:51:18.095Z,72.92
2018-01-29T05:53:46.047Z,72.61
2018-01-29T05:56:13.908Z,72.44
2018-01-29T05:58:41.789Z,72.25
2018-01-29T06:01:09.716Z,72.02
2018-01-29T06:03:37.662Z,71.85
2018-01-29T06:06:05.522Z,71.59
2018-01-29T06:08:33.399Z,71.25
2018-01-29T06:11:01.295Z,71.12
2018-01-29T06:13:29.163Z,70.99
2018-01-29T06:15:57.080Z,70.62
2018-01-29T06:18:24.947Z,70.17
2018-01-29T06:20:55.716Z,69.77
2018-01-29T06:23:23.658Z,67.55
2018-01-29T06:25:51.524Z,66.37
2018-01-29T06:28:19.722Z,65.65
2018-01-29T06:30:47.624Z,64.75
2018-01-29T06:33:15.491Z,64.94
2018-01-29T06:35:43.327Z,64.77
2018-01-29T06:38:11.502Z,63.44
2018-01-29T06:40:39.408Z,62.41
2018-01-29T06:43:07.255Z,60.61
2018-01-29T06:45:35.161Z,58.66
2018-01-29T06:48:03.007Z,56.96
2018-01-29T06:50:30.844Z,56.37
2018-01-29T06:52:58.823Z,57.62
2018-01-29T06:55:26.691Z,57.31
2018-01-29T06:57:54.555Z,57.68
2018-01-29T07:00:23.358Z,57.95
2018-01-29T07:02:51.225Z,57.71
2018-01-29T07:05:19.576Z,57.04
2018-01-29T07:07:47.795Z,55.26
2018-01-29T07:10:15.714Z,56.05
2018-01-29T07:12:43.560Z,55.08
2018-01-29T07:15:11.470Z,53.58
2018-01-29T07:17:39.342Z,52.68
2018-01-29T07:20:07.223Z,52.16
2018-01-29T07:22:35.115Z,52.41
2018-01-29T07:25:02.958Z,53.00
2018-01-29T07:27:30.871Z,52.22
2018-01-29T07:29:58.799Z,51.68
2018-01-29T07:32:26.642Z,49.82
2018-01-29T07:34:54.481Z,49.78
2018-01-29T07:37:22.442Z,50.32
2018-01-29T07:39:50.324Z,50.24
2018-01-29T07:42:18.201Z,48.32
2018-01-29T07:44:46.138Z,48.99
2018-01-29T07:47:14.002Z,48.83
2018-01-29T07:49:41.893Z,49.72
2018-01-29T07:52:09.811Z,50.65
2018-01-29T07:54:38.427Z,50.24
2018-01-29T07:57:07.249Z,48.96
2018-01-29T07:59:35.741Z,48.92
2018-01-29T08:02:04.423Z,48.04
2018-01-29T08:04:33.554Z,48.95
2018-01-29T08:07:01.561Z,50.16
2018-01-29T08:09:29.433Z,49.99
2018-01-29T08:11:57.319Z,51.30
2018-01-29T08:14:25.230Z,50.44
2018-01-29T08:16:53.109Z,50.12
2018-01-29T08:19:20.986Z,49.59
2018-01-29T08:21:48.898Z,51.27
2018-01-29T08:24:16.753Z,49.39
2018-01-29T08:26:45.035Z,48.20
2018-01-29T08:29:12.938Z,48.98
2018-01-29T08:31:40.852Z,48.79
2018-01-29T08:34:08.718Z,47.76
2018-01-29T08:36:36.823Z,47.90
2018-01-29T08:39:04.792Z,48.13
2018-01-29T08:41:32.715Z,46.92
2018-01-29T08:44:00.711Z,47.44
2018-01-29T08:46:28.562Z,47.46
2018-01-29T08:48:56.441Z,46.75
2018-01-29T08:51:24.393Z,46.13
2018-01-29T08:53:52.259Z,46.40
2018-01-29T08:56:20.116Z,47.30
2018-01-29T08:58:48.061Z,46.48
2018-01-29T09:01:15.925Z,45.12
2018-01-29T09:03:43.778Z,43.56
2018-01-29T09:06:11.994Z,44.10
2018-01-29T09:08:39.887Z,42.80
2018-01-29T09:11:08.273Z,44.02
2018-01-29T09:13:36.227Z,44.00
2018-01-29T09:16:04.102Z,43.81
2018-01-29T09:18:31.967Z,44.83
2018-01-29T09:20:59.864Z,44.30
2018-01-29T09:23:27.719Z,42.52
2018-01-29T09:25:55.567Z,42.31
2018-01-29T09:28:23.495Z,41.23
2018-01-29T09:30:51.369Z,41.37
2018-01-29T09:33:19.321Z,39.55
2018-01-29T09:35:47.351Z,40.19
2018-01-29T09:38:15.306Z,40.60
2018-01-29T09:40:43.195Z,39.90
2018-01-29T09:43:11.115Z,38.86
2018-01-29T09:45:38.984Z,38.97
2018-01-29T09:48:07.431Z,39.59
2018-01-29T09:50:35.388Z,38.84
2018-01-29T09:53:03.257Z,38.89
2018-01-29T09:55:31.155Z,37.92
2018-01-29T09:57:59.096Z,35.83
2018-01-29T10:00:27.028Z,35.27
2018-01-29T10:02:54.973Z,36.58
2018-01-29T10:05:22.959Z,36.42
2018-01-29T10:07:50.868Z,35.95
2018-01-29T10:10:19.203Z,37.74
2018-01-29T10:12:47.483Z,36.45
2018-01-29T10:15:15.366Z,36.85
2018-01-29T10:17:43.258Z,38.32
2018-01-29T10:20:11.207Z,40.27
2018-01-29T10:22:39.062Z,41.95
2018-01-29T10:25:06.907Z,44.29
2018-01-29T10:27:34.833Z,44.66
2018-01-29T10:30:02.707Z,44.55
2018-01-29T10:32:30.713Z,43.62
2018-01-29T10:34:58.649Z,42.17
2018-01-29T10:37:26.529Z,42.45
2018-01-29T10:39:54.383Z,41.45
2018-01-29T10:42:22.349Z,42.14
2018-01-29T10:44:50.226Z,42.06
2018-01-29T10:47:18.064Z,42.68
2018-01-29T10:49:45.961Z,43.42
2018-01-29T10:52:14.325Z,44.94
2018-01-29T10:54:42.175Z,44.23
2018-01-29T10:57:10.067Z,43.88
2018-01-29T10:59:37.986Z,42.51
2018-01-29T11:02:05.866Z,42.99
2018-01-29T11:04:35.013Z,41.98
2018-01-29T11:07:02.891Z,40.93
2018-01-29T11:09:30.841Z,39.35
2018-01-29T11:11:59.897Z,40.30
2018-01-29T11:14:28.144Z,39.26
2018-01-29T11:16:56.008Z,38.61
2018-01-29T11:19:23.984Z,39.38
2018-01-29T11:21:51.904Z,38.83
2018-01-29T11:24:20.250Z,35.42
2018-01-29T11:26:49.214Z,35.05
2018-01-29T11:29:17.096Z,35.06
2018-01-29T11:31:44.987Z,33.93
2018-01-29T11:34:18.228Z,33.81
2018-01-29T11:36:46.648Z,31.34
2018-01-29T11:39:15.264Z,30.62
2018-01-29T11:41:43.909Z,29.92
2018-01-29T11:44:11.806Z,29.96
2018-01-29T11:46:40.498Z,27.97
2018-01-29T11:49:08.892Z,26.15
2018-01-29T11:51:39.756Z,27.22
2018-01-29T11:54:08.731Z,28.30
2018-01-29T11:56:37.814Z,28.30
2018-01-29T11:59:06.000Z,30.49
2018-01-29T12:01:34.489Z,32.35
2018-01-29T12:04:02.407Z,31.74
2018-01-29T12:06:30.303Z,32.11
2018-01-29T12:08:58.331Z,34.50
2018-01-29T12:11:26.501Z,34.62
2018-01-29T12:13:54.519Z,33.61
2018-01-29T12:16:22.446Z,33.33
2018-01-29T12:18:50.464Z,32.24
2018-01-29T12:21:18.311Z,32.80
2018-01-29T12:23:46.281Z,34.04
2018-01-29T12:26:14.256Z,33.82
2018-01-29T12:28:42.185Z,31.41
2018-01-29T12:31:10.114Z,30.78
2018-01-29T12:33:38.066Z,29.37
2018-01-29T12:36:05.958Z,27.20
2018-01-29T12:38:34.585Z,25.45
2018-01-29T12:41:02.535Z,27.05
2018-01-29T12:43:30.507Z,26.65
2018-01-29T12:45:59.661Z,25.08
2018-01-29T12:48:27.694Z,24.36
2018-01-29T12:50:55.640Z,23.98
2018-01-29T12:53:23.741Z,25.13
2018-01-29T12:55:51.766Z,23.82
2018-01-29T12:58:20.007Z,23.20
2018-01-29T13:00:48.298Z,22.66
2018-01-29T13:03:16.203Z,23.49
2018-01-29T13:05:44.096Z,24.99
2018-01-29T13:08:11.958Z,26.22
2018-01-29T13:10:39.932Z,27.07
2018-01-29T13:13:08.407Z,27.94
2018-01-29T13:15:36.570Z,29.29
2018-01-29T13:18:04.539Z,29.33
2018-01-29T13:20:32.437Z,29.20
2018-01-29T13:23:00.524Z,27.82
2018-01-29T13:25:28.692Z,26.61
2018-01-29T13:27:56.540Z,25.37
2018-01-29T13:30:24.454Z,24.64
2018-01-29T13:32:52.448Z,23.86
2018-01-29T13:35:20.488Z,23.25
2018-01-29T13:37:48.350Z,23.09
2018-01-29T13:40:16.250Z,22.51
2018-01-29T13:42:44.134Z,24.29
2018-01-29T13:45:12.154Z,24.85
2018-01-29T13:47:40.074Z,25.14
2018-01-29T13:50:07.938Z,24.93
2018-01-29T13:52:35.787Z,24.48
2018-01-29T13:55:03.732Z,25.07
2018-01-29T13:57:31.608Z,25.77
2018-01-29T13:59:59.476Z,26.09
2018-01-29T14:02:27.384Z,29.82
2018-01-29T14:04:55.311Z,31.20
2018-01-29T14:07:23.230Z,31.87
2018-01-29T14:09:51.251Z,33.15
2018-01-29T14:12:19.340Z,34.02
2018-01-29T14:14:47.528Z,35.00
2018-01-29T14:17:15.869Z,36.08
2018-01-29T14:19:44.809Z,37.85
2018-01-29T14:22:12.868Z,38.37
2018-01-29T14:24:41.677Z,37.42
2018-01-29T14:27:10.070Z,38.75
2018-01-29T14:29:38.314Z,34.75
2018-01-29T14:32:06.642Z,33.70
2018-01-29T14:34:35.094Z,33.18
2018-01-29T14:37:03.687Z,33.67
2018-01-29T14:39:31.788Z,33.65
2018-01-29T14:42:00.318Z,34.73
2018-01-29T14:44:28.541Z,34.52
2018-01-29T14:46:56.771Z,34.38
2018-01-29T14:49:24.901Z,34.55
2018-01-29T14:51:53.158Z,34.67
2018-01-29T14:54:21.516Z,34.91
2018-01-29T14:56:49.614Z,35.39
2018-01-29T14:59:17.719Z,35.95
2018-01-29T15:01:45.721Z,36.10
2018-01-29T15:04:13.730Z,36.18
2018-01-29T15:06:42.336Z,36.68
2018-01-29T15:09:10.337Z,37.21
2018-01-29T15:11:38.400Z,37.33
2018-01-29T15:14:06.958Z,37.45
2018-01-29T15:16:35.140Z,37.75
2018-01-29T15:19:03.168Z,38.13
2018-01-29T15:21:31.072Z,38.40
2018-01-29T15:24:00.036Z,38.35
2018-01-29T15:26:29.114Z,39.15
2018-01-29T15:28:57.255Z,39.22
2018-01-29T15:31:25.393Z,39.58
2018-01-29T15:33:55.542Z,40.01
2018-01-29T15:36:24.506Z,40.08
2018-01-29T15:38:53.750Z,40.09
2018-01-29T15:41:22.943Z,40.04
2018-01-29T15:43:51.950Z,40.86
2018-01-29T15:46:21.221Z,40.88
2018-01-29T15:48:50.331Z,40.97
2018-01-29T15:51:19.747Z,41.01
2018-01-29T15:53:47.757Z,41.21
2018-01-29T15:56:15.805Z,41.25
2018-01-29T15:58:43.893Z,41.13
2018-01-29T16:01:11.916Z,41.44
2018-01-29T16:03:39.895Z,41.48
2018-01-29T16:06:07.913Z,41.41
2018-01-29T16:08:35.915Z,41.65
2018-01-29T16:11:03.899Z,41.91
2018-01-29T16:13:31.788Z,42.21
2018-01-29T16:15:59.765Z,41.86
2018-01-29T16:18:27.661Z,41.97
2018-01-29T16:20:55.921Z,43.16
2018-01-29T16:23:23.925Z,47.66
2018-01-29T16:25:51.868Z,48.60
2018-01-29T16:28:19.791Z,49.17
2018-01-29T16:30:47.697Z,49.49
2018-01-29T16:33:15.668Z,49.88
2018-01-29T16:35:43.544Z,50.21
2018-01-29T16:38:11.546Z,50.43
2018-01-29T16:40:39.379Z,50.38
2018-01-29T16:43:07.458Z,50.52
2018-01-29T16:45:35.467Z,50.67
2018-01-29T16:48:03.337Z,50.94
2018-01-29T16:50:31.363Z,51.46
2018-01-29T16:52:59.832Z,51.47
2018-01-29T16:55:28.043Z,51.80
2018-01-29T16:57:55.963Z,51.90
2018-01-29T17:00:24.085Z,52.39
2018-01-29T17:02:52.234Z,52.27
2018-01-29T17:05:20.307Z,52.64
2018-01-29T17:07:48.353Z,53.47
2018-01-29T17:10:16.398Z,53.73
2018-01-29T17:12:44.379Z,53.36
2018-01-29T17:15:12.427Z,53.17
2018-01-29T17:17:40.384Z,53.26
2018-01-29T17:20:08.406Z,53.23
2018-01-29T17:22:36.622Z,53.04
2018-01-29T17:25:04.641Z,53.38
2018-01-29T17:27:32.642Z,53.74
2018-01-29T17:30:00.617Z,54.45
2018-01-29T17:32:28.611Z,55.02
2018-01-29T17:34:56.675Z,55.15
2018-01-29T17:37:24.690Z,55.30
2018-01-29T17:39:52.664Z,55.73
2018-01-29T17:42:20.659Z,56.62
2018-01-29T17:44:48.637Z,57.29
2018-01-29T17:47:16.630Z,57.04
2018-01-29T17:49:44.568Z,57.40
2018-01-29T17:52:12.642Z,57.34
2018-01-29T17:54:40.574Z,58.06
2018-01-29T17:57:08.427Z,59.08
2018-01-29T17:59:36.372Z,58.85
2018-01-29T18:02:04.262Z,58.84
2018-01-29T18:04:32.119Z,59.25
2018-01-29T18:07:00.030Z,59.48
2018-01-29T18:09:27.963Z,59.71
2018-01-29T18:11:55.807Z,59.48
2018-01-29T18:14:23.715Z,59.25
2018-01-29T18:16:51.547Z,59.09
2018-01-29T18:19:19.390Z,59.17
2018-01-29T18:21:47.278Z,59.29
2018-01-29T18:24:15.266Z,59.14
2018-01-29T18:26:43.127Z,59.84
2018-01-29T18:29:11.012Z,59.84
2018-01-29T18:31:39.378Z,59.93
2018-01-29T18:34:09.282Z,60.03
2018-01-29T18:36:37.199Z,60.34
2018-01-29T18:39:05.106Z,60.60
2018-01-29T18:41:32.956Z,60.75
2018-01-29T18:44:00.843Z,60.89
2018-01-29T18:46:28.732Z,61.17
2018-01-29T18:48:56.646Z,61.33
2018-01-29T18:51:24.783Z,61.29
2018-01-29T18:53:52.678Z,61.80
2018-01-29T18:56:20.521Z,62.11
2018-01-29T18:58:48.397Z,61.91
2018-01-29T19:01:16.227Z,61.60
2018-01-29T19:03:44.066Z,61.66
2018-01-29T19:06:11.969Z,61.16
2018-01-29T19:08:39.892Z,61.35
2018-01-29T19:11:07.730Z,61.25
2018-01-29T19:13:35.647Z,61.51
2018-01-29T19:16:03.522Z,61.80
2018-01-29T19:18:31.415Z,62.15
2018-01-29T19:20:59.421Z,62.08
2018-01-29T19:23:27.250Z,61.78
2018-01-29T19:25:55.422Z,61.92
2018-01-29T19:28:23.407Z,62.10
2018-01-29T19:30:51.260Z,62.91
2018-01-29T19:33:21.249Z,62.45
2018-01-29T19:35:49.150Z,61.78
2018-01-29T19:38:17.007Z,61.66
2018-01-29T19:40:44.876Z,61.75
2018-01-29T19:43:12.784Z,61.42
2018-01-29T19:45:40.650Z,61.69
2018-01-29T19:48:08.495Z,61.76
2018-01-29T19:50:36.394Z,62.11
2018-01-29T19:53:04.263Z,62.04
2018-01-29T19:55:32.122Z,62.41
2018-01-29T19:58:00.035Z,62.76
2018-01-29T20:00:27.906Z,63.55
2018-01-29T20:02:55.747Z,63.88
2018-01-29T20:05:23.654Z,64.15
2018-01-29T20:07:51.580Z,64.19
2018-01-29T20:10:19.442Z,64.62
2018-01-29T20:12:47.374Z,65.02
2018-01-29T20:15:15.296Z,65.69
2018-01-29T20:17:43.127Z,65.51
2018-01-29T20:20:11.059Z,65.84
2018-01-29T20:22:38.899Z,66.05
2018-01-29T20:25:06.738Z,65.46
2018-01-29T20:27:34.758Z,66.56
2018-01-29T20:30:02.587Z,66.13
2018-01-29T20:32:30.431Z,66.40
2018-01-29T20:34:59.482Z,66.50
2018-01-29T20:37:27.331Z,66.56
2018-01-29T20:39:55.168Z,66.77
2018-01-29T20:42:23.081Z,67.29
2018-01-29T20:44:50.979Z,67.78
2018-01-29T20:47:18.818Z,68.09
2018-01-29T20:49:46.702Z,67.71
2018-01-29T20:52:14.569Z,67.28
2018-01-29T20:54:42.461Z,67.82
2018-01-29T20:57:10.353Z,68.35
2018-01-29T20:59:38.208Z,68.31
2018-01-29T21:02:06.053Z,67.51
2018-01-29T21:04:34.002Z,67.26
2018-01-29T21:07:01.838Z,67.18
2018-01-29T21:09:30.215Z,67.08
2018-01-29T21:11:58.115Z,67.40
2018-01-29T21:14:25.961Z,67.45
2018-01-29T21:16:53.799Z,66.68
2018-01-29T21:19:22.102Z,67.07
2018-01-29T21:21:49.959Z,67.97
2018-01-29T21:24:17.795Z,67.62
2018-01-29T21:26:45.714Z,67.30
2018-01-29T21:29:13.634Z,67.78
2018-01-29T21:31:41.475Z,67.78
2018-01-29T21:34:09.385Z,68.64
2018-01-29T21:36:37.222Z,68.79
2018-01-29T21:39:05.127Z,68.50
2018-01-29T21:41:33.059Z,68.83
2018-01-29T21:44:00.894Z,68.96
2018-01-29T21:46:28.744Z,69.07
2018-01-29T21:48:56.657Z,69.24
2018-01-29T21:51:24.565Z,69.90
2018-01-29T21:53:52.410Z,69.85
2018-01-29T21:56:20.533Z,70.02
2018-01-29T21:58:48.455Z,70.02
2018-01-29T22:01:16.412Z,70.11
2018-01-29T22:03:44.479Z,69.84
2018-01-29T22:06:12.321Z,70.84
2018-01-29T22:08:40.175Z,70.54
2018-01-29T22:11:08.112Z,70.46
2018-01-29T22:13:35.959Z,69.81
2018-01-29T22:16:03.834Z,70.00
2018-01-29T22:18:31.742Z,70.18
2018-01-29T22:20:59.570Z,70.25
2018-01-29T22:23:27.408Z,70.44
2018-01-29T22:25:55.338Z,70.73
2018-01-29T22:28:23.187Z,70.54
2018-01-29T22:30:51.708Z,70.36
2018-01-29T22:33:19.962Z,70.25
2018-01-29T22:35:47.807Z,70.26
2018-01-29T22:38:15.638Z,70.27
2018-01-29T22:40:43.534Z,70.00
2018-01-29T22:43:11.373Z,69.89
2018-01-29T22:45:39.210Z,70.09
2018-01-29T22:48:07.095Z,70.37
2018-01-29T22:50:34.922Z,70.22
2018-01-29T22:53:02.772Z,70.03
2018-01-29T22:55:30.669Z,70.10
2018-01-29T22:57:58.615Z,70.23
2018-01-29T23:00:26.445Z,70.02
2018-01-29T23:02:54.399Z,69.94
2018-01-29T23:05:22.223Z,69.81
2018-01-29T23:07:50.086Z,70.03
2018-01-29T23:10:17.996Z,70.81
2018-01-29T23:12:45.826Z,70.68
2018-01-29T23:15:13.698Z,70.39
2018-01-29T23:17:41.631Z,70.09
2018-01-29T23:20:09.556Z,70.50
2018-01-29T23:22:37.387Z,70.07
2018-01-29T23:25:05.662Z,70.14
2018-01-29T23:27:33.507Z,70.42
2018-01-29T23:30:01.343Z,70.65
2018-01-29T23:32:29.358Z,71.03
2018-01-29T23:34:57.213Z,70.89
2018-01-29T23:37:25.051Z,71.18
2018-01-29T23:39:52.938Z,71.24
2018-01-29T23:42:20.774Z,71.75
2018-01-29T23:44:48.639Z,72.14
2018-01-29T23:47:16.523Z,71.71
2018-01-29T23:49:44.373Z,71.96
2018-01-29T23:52:12.198Z,72.04
2018-01-29T23:54:40.086Z,72.75
2018-01-29T23:57:07.918Z,72.64
2018-01-29T23:59:35.758Z,72.22
